Detall de PIREP

Printer-friendly versionPDF version

[2010/09/23 15:37:00]
Flight IATA:CT0001
Pilot Number:042
Company ICAO:CAT
Aircraft Type:B763/F
PAX:150
Departing Airport: LEBL
Destination Airport: LEPA
Alternate Airport:LEVC
Online: VATSIM
Route:LARPA B31 TOLSO
Flight Level:FL200
No Slew and time accel
No pause
Crash detect
Detect pilot in Cockpit between each 30 and 45 minutes
15:37 Zero fuel Weight: 244976 Lbs, Fuel Weight: 161506 Lbs
15:37 VATSIM:LEBL 231500Z 23011KT 9999 FEW020 25/19 Q1013 NOSIG
15:37 VATSIM:LEPA 231430Z 20008KT 170V240 9999 FEW016 SCT020 25/19 Q1016 NOSIG
15:38 VOICE CATALONIAN
15:42 Parking Brakes off
15:50 Take-off
15:50 Take off Weight: 403571 Lbs
15:50 Wind: 232 @ 011 Knots Heading: 244
15:50 POS N41 17 04 E002 04 51
15:50 Gear Up: 185 Knots
15:50 Flaps:3 at 185 Knots
15:50 Flaps:2 at 187 Knots
15:50 Gear Down: 211 Knots
15:51 Gear Up: 213 Knots
15:51 Flaps:1 at 219 Knots
15:52 Flaps:0 at 230 Knots
15:56 TOC
15:56 Fuel Weight: 153886 Lb
16:01 TOD
16:01 Fuel Weight: 152817 Lb
16:05 Wind:274@030 Knots Heading: 141 Ground Speed: 362 Knots Altitude 15196 ft
16:10 Flaps:1 at 247 Knots
16:12 Flaps:2 at 215 Knots
16:12 Flaps:3 at 205 Knots
16:13 Flaps:4 at 183 Knots
16:14 Flaps:5 at 166 Knots
16:16 Flaps:6 at 162 Knots
16:16 Gear Down: 160 Knots
16:20 Wind:201@007 Knots Heading: 236 Ground Speed: 142 Knots Altitude 062 ft
16:20 TouchDown:Rate -153 ft/min Speed: 132 Knots
16:20 VATSIM:LEPA 231600Z 20007KT 170V230 9999 FEW016 SCT020 24/20 Q1015 NOSIG
16:20 Land
16:20 Wind:200@007 Knots
16:20 Heading: 236
16:20 Flight Duration: 00:30
16:20 Landing Weight: 394603 Lbs
16:20 POS N39 33 14 E002 43 31
16:22 Parking brakes on
16:22 Block to Block Duration: 00:40
16:22 Final Fuel: 149270 Lbls
16:22 Spent Fuel: 12235 Lbls
16:22 Flight Length: 55 NM
16:22 TOD Land Length: 22 NM

Exportar CSV

Powered by Drupal - Modified by Danger4k